sensor_id;sensor_type;location;lat;lon;timestamp;P1;durP1;ratioP1;P2;durP2;ratioP2
67130;SDS011;54051;53.464;49.532;2022-12-07T00:00:55;17.70;;;6.40;;
67130;SDS011;54051;53.464;49.532;2022-12-07T00:03:29;13.07;;;5.15;;
67130;SDS011;54051;53.464;49.532;2022-12-07T00:05:58;16.85;;;5.82;;
67130;SDS011;54051;53.464;49.532;2022-12-07T00:08:25;18.35;;;6.63;;
67130;SDS011;54051;53.464;49.532;2022-12-07T00:10:51;18.25;;;6.93;;
67130;SDS011;54051;53.464;49.532;2022-12-07T00:13:18;17.92;;;6.90;;
67130;SDS011;54051;53.464;49.532;2022-12-07T00:15:44;15.15;;;6.18;;
67130;SDS011;54051;53.464;49.532;2022-12-07T00:18:10;15.43;;;5.32;;
67130;SDS011;54051;53.464;49.532;2022-12-07T00:20:36;16.70;;;6.38;;
67130;SDS011;54051;53.464;49.532;2022-12-07T00:23:02;15.02;;;4.78;;
67130;SDS011;54051;53.464;49.532;2022-12-07T00:25:29;15.48;;;6.40;;
67130;SDS011;54051;53.464;49.532;2022-12-07T00:27:55;14.00;;;4.80;;
67130;SDS011;54051;53.464;49.532;2022-12-07T00:30:22;15.70;;;6.28;;
67130;SDS011;54051;53.464;49.532;2022-12-07T00:32:49;16.42;;;5.60;;
67130;SDS011;54051;53.464;49.532;2022-12-07T00:35:15;16.85;;;5.70;;
67130;SDS011;54051;53.464;49.532;2022-12-07T00:37:41;13.75;;;5.68;;
67130;SDS011;54051;53.464;49.532;2022-12-07T00:40:07;15.45;;;6.10;;
67130;SDS011;54051;53.464;49.532;2022-12-07T00:42:33;15.13;;;5.45;;
67130;SDS011;54051;53.464;49.532;2022-12-07T00:44:59;22.08;;;7.65;;
67130;SDS011;54051;53.464;49.532;2022-12-07T00:47:26;17.52;;;6.78;;
67130;SDS011;54051;53.464;49.532;2022-12-07T00:49:51;16.90;;;6.80;;
67130;SDS011;54051;53.464;49.532;2022-12-07T00:52:17;14.75;;;6.35;;
67130;SDS011;54051;53.464;49.532;2022-12-07T00:54:43;20.58;;;6.32;;
67130;SDS011;54051;53.464;49.532;2022-12-07T00:57:09;15.40;;;6.85;;
67130;SDS011;54051;53.464;49.532;2022-12-07T00:59:35;18.02;;;5.85;;
67130;SDS011;54051;53.464;49.532;2022-12-07T01:02:01;17.23;;;6.45;;
67130;SDS011;54051;53.464;49.532;2022-12-07T01:04:27;16.17;;;6.13;;
67130;SDS011;54051;53.464;49.532;2022-12-07T01:06:54;17.25;;;6.25;;
67130;SDS011;54051;53.464;49.532;2022-12-07T01:09:20;17.05;;;6.63;;
67130;SDS011;54051;53.464;49.532;2022-12-07T01:11:46;15.75;;;5.72;;
67130;SDS011;54051;53.464;49.532;2022-12-07T01:14:12;18.00;;;7.00;;
67130;SDS011;54051;53.464;49.532;2022-12-07T01:16:38;17.15;;;6.68;;
67130;SDS011;54051;53.464;49.532;2022-12-07T01:19:05;16.13;;;6.10;;
67130;SDS011;54051;53.464;49.532;2022-12-07T01:21:32;16.73;;;6.88;;
67130;SDS011;54051;53.464;49.532;2022-12-07T01:24:01;20.52;;;7.32;;
67130;SDS011;54051;53.464;49.532;2022-12-07T01:26:28;14.95;;;6.68;;
67130;SDS011;54051;53.464;49.532;2022-12-07T01:28:54;16.05;;;6.40;;
67130;SDS011;54051;53.464;49.532;2022-12-07T01:31:21;21.92;;;6.97;;
67130;SDS011;54051;53.464;49.532;2022-12-07T01:33:50;14.52;;;6.03;;
67130;SDS011;54051;53.464;49.532;2022-12-07T01:36:19;15.25;;;5.75;;
67130;SDS011;54051;53.464;49.532;2022-12-07T01:38:47;15.70;;;6.60;;
67130;SDS011;54051;53.464;49.532;2022-12-07T01:41:16;19.40;;;6.82;;
67130;SDS011;54051;53.464;49.532;2022-12-07T01:46:43;19.98;;;5.70;;
67130;SDS011;54051;53.464;49.532;2022-12-07T01:49:16;21.02;;;7.13;;
67130;SDS011;54051;53.464;49.532;2022-12-07T01:52:07;19.52;;;6.20;;
67130;SDS011;54051;53.464;49.532;2022-12-07T01:54:39;16.02;;;6.38;;
67130;SDS011;54051;53.464;49.532;2022-12-07T01:57:06;15.55;;;6.05;;
67130;SDS011;54051;53.464;49.532;2022-12-07T01:59:34;14.68;;;4.97;;
67130;SDS011;54051;53.464;49.532;2022-12-07T02:02:00;15.90;;;5.37;;
67130;SDS011;54051;53.464;49.532;2022-12-07T02:04:29;14.23;;;6.10;;
67130;SDS011;54051;53.464;49.532;2022-12-07T02:06:55;15.20;;;6.25;;
67130;SDS011;54051;53.464;49.532;2022-12-07T02:09:23;19.85;;;7.43;;
67130;SDS011;54051;53.464;49.532;2022-12-07T02:11:49;16.15;;;6.47;;
67130;SDS011;54051;53.464;49.532;2022-12-07T02:14:15;14.10;;;5.13;;
67130;SDS011;54051;53.464;49.532;2022-12-07T02:27:39;16.15;;;6.00;;
67130;SDS011;54051;53.464;49.532;2022-12-07T02:32:42;15.23;;;5.35;;
67130;SDS011;54051;53.464;49.532;2022-12-07T02:35:21;17.48;;;6.40;;
67130;SDS011;54051;53.464;49.532;2022-12-07T02:43:11;12.75;;;5.07;;
67130;SDS011;54051;53.464;49.532;2022-12-07T02:45:43;14.73;;;5.95;;
67130;SDS011;54051;53.464;49.532;2022-12-07T02:48:12;15.55;;;5.72;;
67130;SDS011;54051;53.464;49.532;2022-12-07T02:50:51;15.95;;;6.22;;
67130;SDS011;54051;53.464;49.532;2022-12-07T02:53:29;15.82;;;6.07;;
67130;SDS011;54051;53.464;49.532;2022-12-07T02:56:06;14.82;;;5.53;;
67130;SDS011;54051;53.464;49.532;2022-12-07T03:06:51;14.07;;;5.13;;
67130;SDS011;54051;53.464;49.532;2022-12-07T03:09:36;17.50;;;6.63;;
67130;SDS011;54051;53.464;49.532;2022-12-07T03:14:40;18.60;;;5.63;;
67130;SDS011;54051;53.464;49.532;2022-12-07T03:17:12;17.98;;;6.05;;
67130;SDS011;54051;53.464;49.532;2022-12-07T03:19:42;22.83;;;6.28;;
67130;SDS011;54051;53.464;49.532;2022-12-07T03:22:11;14.25;;;5.82;;
67130;SDS011;54051;53.464;49.532;2022-12-07T03:24:40;18.58;;;5.80;;
67130;SDS011;54051;53.464;49.532;2022-12-07T03:27:11;16.10;;;5.95;;
67130;SDS011;54051;53.464;49.532;2022-12-07T03:29:46;15.48;;;5.30;;
67130;SDS011;54051;53.464;49.532;2022-12-07T03:32:40;16.02;;;5.43;;
67130;SDS011;54051;53.464;49.532;2022-12-07T03:35:38;16.08;;;5.38;;
67130;SDS011;54051;53.464;49.532;2022-12-07T03:41:00;11.63;;;4.50;;
67130;SDS011;54051;53.464;49.532;2022-12-07T03:43:31;15.45;;;5.25;;
67130;SDS011;54051;53.464;49.532;2022-12-07T03:46:02;11.60;;;4.72;;
67130;SDS011;54051;53.464;49.532;2022-12-07T03:48:57;11.90;;;4.85;;
67130;SDS011;54051;53.464;49.532;2022-12-07T03:54:34;15.52;;;5.15;;
67130;SDS011;54051;53.464;49.532;2022-12-07T03:57:04;12.63;;;4.93;;
67130;SDS011;54051;53.464;49.532;2022-12-07T03:59:32;16.33;;;5.82;;
67130;SDS011;54051;53.464;49.532;2022-12-07T04:02:03;15.47;;;6.13;;
67130;SDS011;54051;53.464;49.532;2022-12-07T04:04:30;15.90;;;5.72;;
67130;SDS011;54051;53.464;49.532;2022-12-07T04:06:57;16.88;;;5.75;;
67130;SDS011;54051;53.464;49.532;2022-12-07T04:09:24;16.95;;;6.00;;
67130;SDS011;54051;53.464;49.532;2022-12-07T04:11:50;14.30;;;5.20;;
67130;SDS011;54051;53.464;49.532;2022-12-07T04:14:16;16.17;;;5.63;;
67130;SDS011;54051;53.464;49.532;2022-12-07T04:16:46;15.05;;;5.40;;
67130;SDS011;54051;53.464;49.532;2022-12-07T04:19:13;16.02;;;5.70;;
67130;SDS011;54051;53.464;49.532;2022-12-07T04:21:40;11.77;;;4.20;;
67130;SDS011;54051;53.464;49.532;2022-12-07T04:24:06;11.07;;;4.45;;
67130;SDS011;54051;53.464;49.532;2022-12-07T04:26:32;14.80;;;6.07;;
67130;SDS011;54051;53.464;49.532;2022-12-07T04:28:58;12.50;;;5.15;;
67130;SDS011;54051;53.464;49.532;2022-12-07T04:31:24;16.58;;;6.28;;
67130;SDS011;54051;53.464;49.532;2022-12-07T04:33:50;16.92;;;5.95;;
67130;SDS011;54051;53.464;49.532;2022-12-07T04:36:16;14.88;;;5.95;;
67130;SDS011;54051;53.464;49.532;2022-12-07T04:38:45;12.93;;;5.32;;
67130;SDS011;54051;53.464;49.532;2022-12-07T04:41:11;12.63;;;5.10;;
67130;SDS011;54051;53.464;49.532;2022-12-07T04:43:37;13.98;;;5.70;;
67130;SDS011;54051;53.464;49.532;2022-12-07T04:46:03;14.32;;;5.10;;
67130;SDS011;54051;53.464;49.532;2022-12-07T04:48:29;15.55;;;5.35;;
67130;SDS011;54051;53.464;49.532;2022-12-07T04:50:55;16.98;;;6.03;;
67130;SDS011;54051;53.464;49.532;2022-12-07T04:53:21;16.20;;;5.85;;
67130;SDS011;54051;53.464;49.532;2022-12-07T04:55:48;8.25;;;4.03;;
67130;SDS011;54051;53.464;49.532;2022-12-07T04:58:14;17.98;;;4.90;;
67130;SDS011;54051;53.464;49.532;2022-12-07T05:00:40;13.05;;;5.03;;
67130;SDS011;54051;53.464;49.532;2022-12-07T05:03:06;12.95;;;5.22;;
67130;SDS011;54051;53.464;49.532;2022-12-07T05:05:32;9.40;;;4.40;;
67130;SDS011;54051;53.464;49.532;2022-12-07T05:07:58;13.93;;;5.03;;
67130;SDS011;54051;53.464;49.532;2022-12-07T05:10:24;10.13;;;3.90;;
67130;SDS011;54051;53.464;49.532;2022-12-07T05:12:50;13.52;;;5.00;;
67130;SDS011;54051;53.464;49.532;2022-12-07T05:15:16;16.73;;;5.20;;
67130;SDS011;54051;53.464;49.532;2022-12-07T05:17:42;13.85;;;5.10;;
67130;SDS011;54051;53.464;49.532;2022-12-07T05:20:08;13.18;;;4.60;;
67130;SDS011;54051;53.464;49.532;2022-12-07T05:22:34;10.90;;;4.57;;
67130;SDS011;54051;53.464;49.532;2022-12-07T05:25:01;9.20;;;3.95;;
67130;SDS011;54051;53.464;49.532;2022-12-07T05:27:27;14.73;;;4.80;;
67130;SDS011;54051;53.464;49.532;2022-12-07T05:29:52;10.20;;;3.88;;
67130;SDS011;54051;53.464;49.532;2022-12-07T05:32:18;10.02;;;4.30;;
67130;SDS011;54051;53.464;49.532;2022-12-07T05:34:44;9.45;;;3.72;;
67130;SDS011;54051;53.464;49.532;2022-12-07T05:37:10;13.25;;;4.15;;
67130;SDS011;54051;53.464;49.532;2022-12-07T05:39:36;13.40;;;4.85;;
67130;SDS011;54051;53.464;49.532;2022-12-07T05:42:06;11.73;;;4.53;;
67130;SDS011;54051;53.464;49.532;2022-12-07T05:44:38;17.40;;;5.60;;
67130;SDS011;54051;53.464;49.532;2022-12-07T05:47:04;18.65;;;5.47;;
67130;SDS011;54051;53.464;49.532;2022-12-07T05:49:31;13.25;;;5.82;;
67130;SDS011;54051;53.464;49.532;2022-12-07T05:51:57;15.50;;;5.82;;
67130;SDS011;54051;53.464;49.532;2022-12-07T05:54:23;14.73;;;6.10;;
67130;SDS011;54051;53.464;49.532;2022-12-07T05:56:49;18.67;;;6.18;;
67130;SDS011;54051;53.464;49.532;2022-12-07T05:59:15;13.45;;;5.55;;
67130;SDS011;54051;53.464;49.532;2022-12-07T06:01:48;17.38;;;5.68;;
67130;SDS011;54051;53.464;49.532;2022-12-07T06:04:34;20.98;;;7.03;;
67130;SDS011;54051;53.464;49.532;2022-12-07T06:07:02;18.75;;;6.28;;
67130;SDS011;54051;53.464;49.532;2022-12-07T06:09:29;14.43;;;6.28;;
67130;SDS011;54051;53.464;49.532;2022-12-07T06:11:56;18.48;;;7.10;;
67130;SDS011;54051;53.464;49.532;2022-12-07T06:14:42;14.43;;;6.53;;
67130;SDS011;54051;53.464;49.532;2022-12-07T06:17:08;16.63;;;6.88;;
67130;SDS011;54051;53.464;49.532;2022-12-07T06:19:35;20.23;;;7.43;;
67130;SDS011;54051;53.464;49.532;2022-12-07T06:22:01;15.45;;;5.88;;
67130;SDS011;54051;53.464;49.532;2022-12-07T06:24:30;15.35;;;6.95;;
67130;SDS011;54051;53.464;49.532;2022-12-07T06:26:56;19.15;;;7.50;;
67130;SDS011;54051;53.464;49.532;2022-12-07T06:29:23;16.40;;;6.60;;
67130;SDS011;54051;53.464;49.532;2022-12-07T06:31:49;17.10;;;6.78;;
67130;SDS011;54051;53.464;49.532;2022-12-07T06:34:16;14.60;;;6.47;;
67130;SDS011;54051;53.464;49.532;2022-12-07T06:36:43;16.23;;;7.05;;
67130;SDS011;54051;53.464;49.532;2022-12-07T06:39:10;16.35;;;6.97;;
67130;SDS011;54051;53.464;49.532;2022-12-07T06:41:37;18.75;;;7.43;;
67130;SDS011;54051;53.464;49.532;2022-12-07T06:44:04;16.85;;;6.90;;
67130;SDS011;54051;53.464;49.532;2022-12-07T06:46:31;16.50;;;6.97;;
67130;SDS011;54051;53.464;49.532;2022-12-07T06:48:57;16.75;;;6.97;;
67130;SDS011;54051;53.464;49.532;2022-12-07T06:51:23;17.45;;;6.88;;
67130;SDS011;54051;53.464;49.532;2022-12-07T06:53:49;13.95;;;6.85;;
67130;SDS011;54051;53.464;49.532;2022-12-07T06:56:15;16.67;;;6.88;;
67130;SDS011;54051;53.464;49.532;2022-12-07T06:58:41;15.10;;;6.72;;
67130;SDS011;54051;53.464;49.532;2022-12-07T07:01:11;17.75;;;7.43;;
67130;SDS011;54051;53.464;49.532;2022-12-07T07:03:38;16.27;;;6.38;;
67130;SDS011;54051;53.464;49.532;2022-12-07T07:06:04;15.93;;;6.68;;
67130;SDS011;54051;53.464;49.532;2022-12-07T07:08:31;15.93;;;6.88;;
67130;SDS011;54051;53.464;49.532;2022-12-07T07:10:57;15.73;;;7.05;;
67130;SDS011;54051;53.464;49.532;2022-12-07T07:13:23;14.73;;;6.50;;
67130;SDS011;54051;53.464;49.532;2022-12-07T07:15:49;16.30;;;7.63;;
67130;SDS011;54051;53.464;49.532;2022-12-07T07:18:15;15.93;;;6.85;;
67130;SDS011;54051;53.464;49.532;2022-12-07T07:20:41;18.00;;;7.13;;
67130;SDS011;54051;53.464;49.532;2022-12-07T07:23:07;18.60;;;8.10;;
67130;SDS011;54051;53.464;49.532;2022-12-07T07:25:33;16.98;;;7.45;;
67130;SDS011;54051;53.464;49.532;2022-12-07T07:28:00;15.90;;;6.75;;
67130;SDS011;54051;53.464;49.532;2022-12-07T07:30:26;12.95;;;6.07;;
67130;SDS011;54051;53.464;49.532;2022-12-07T07:32:56;16.33;;;6.70;;
67130;SDS011;54051;53.464;49.532;2022-12-07T07:35:32;16.33;;;7.18;;
67130;SDS011;54051;53.464;49.532;2022-12-07T07:37:59;16.60;;;7.20;;
67130;SDS011;54051;53.464;49.532;2022-12-07T07:40:26;17.77;;;7.60;;
67130;SDS011;54051;53.464;49.532;2022-12-07T07:42:55;16.02;;;6.65;;
67130;SDS011;54051;53.464;49.532;2022-12-07T07:45:22;15.85;;;7.70;;
67130;SDS011;54051;53.464;49.532;2022-12-07T07:47:50;15.65;;;6.85;;
67130;SDS011;54051;53.464;49.532;2022-12-07T07:50:16;16.65;;;7.70;;
67130;SDS011;54051;53.464;49.532;2022-12-07T07:52:43;18.20;;;7.83;;
67130;SDS011;54051;53.464;49.532;2022-12-07T07:55:09;17.42;;;7.82;;
67130;SDS011;54051;53.464;49.532;2022-12-07T07:57:36;15.93;;;7.70;;
67130;SDS011;54051;53.464;49.532;2022-12-07T08:00:12;17.63;;;6.97;;
67130;SDS011;54051;53.464;49.532;2022-12-07T08:02:40;16.75;;;7.57;;
67130;SDS011;54051;53.464;49.532;2022-12-07T08:05:08;13.38;;;6.90;;
67130;SDS011;54051;53.464;49.532;2022-12-07T08:07:35;14.50;;;7.03;;
67130;SDS011;54051;53.464;49.532;2022-12-07T08:10:01;15.52;;;7.53;;
67130;SDS011;54051;53.464;49.532;2022-12-07T08:12:27;15.60;;;7.50;;
67130;SDS011;54051;53.464;49.532;2022-12-07T08:14:56;15.32;;;6.97;;
67130;SDS011;54051;53.464;49.532;2022-12-07T08:17:22;14.77;;;7.07;;
67130;SDS011;54051;53.464;49.532;2022-12-07T08:19:48;18.65;;;8.27;;
67130;SDS011;54051;53.464;49.532;2022-12-07T08:22:14;17.17;;;6.90;;
67130;SDS011;54051;53.464;49.532;2022-12-07T08:24:40;14.57;;;7.10;;
67130;SDS011;54051;53.464;49.532;2022-12-07T08:27:06;16.30;;;7.05;;
67130;SDS011;54051;53.464;49.532;2022-12-07T08:29:32;15.70;;;7.00;;
67130;SDS011;54051;53.464;49.532;2022-12-07T08:31:58;16.40;;;6.75;;
67130;SDS011;54051;53.464;49.532;2022-12-07T08:36:51;15.90;;;7.57;;
67130;SDS011;54051;53.464;49.532;2022-12-07T08:39:17;15.93;;;7.10;;
67130;SDS011;54051;53.464;49.532;2022-12-07T08:41:43;17.40;;;7.68;;
67130;SDS011;54051;53.464;49.532;2022-12-07T08:44:09;13.77;;;6.47;;
67130;SDS011;54051;53.464;49.532;2022-12-07T08:46:40;14.07;;;6.53;;
67130;SDS011;54051;53.464;49.532;2022-12-07T08:49:18;14.38;;;6.07;;
67130;SDS011;54051;53.464;49.532;2022-12-07T08:51:48;13.15;;;5.93;;
67130;SDS011;54051;53.464;49.532;2022-12-07T08:54:15;13.13;;;5.85;;
67130;SDS011;54051;53.464;49.532;2022-12-07T08:59:09;13.52;;;5.65;;
67130;SDS011;54051;53.464;49.532;2022-12-07T09:01:37;13.63;;;6.00;;
67130;SDS011;54051;53.464;49.532;2022-12-07T09:04:03;13.70;;;5.50;;
67130;SDS011;54051;53.464;49.532;2022-12-07T09:06:29;11.77;;;5.40;;
67130;SDS011;54051;53.464;49.532;2022-12-07T09:08:56;14.90;;;5.80;;
67130;SDS011;54051;53.464;49.532;2022-12-07T09:11:24;12.80;;;5.32;;
67130;SDS011;54051;53.464;49.532;2022-12-07T09:13:50;12.55;;;5.40;;
67130;SDS011;54051;53.464;49.532;2022-12-07T09:16:16;13.25;;;5.45;;
67130;SDS011;54051;53.464;49.532;2022-12-07T09:18:42;13.43;;;5.35;;
67130;SDS011;54051;53.464;49.532;2022-12-07T09:21:08;13.48;;;5.10;;
67130;SDS011;54051;53.464;49.532;2022-12-07T09:23:34;11.48;;;4.35;;
67130;SDS011;54051;53.464;49.532;2022-12-07T09:26:01;12.23;;;4.72;;
67130;SDS011;54051;53.464;49.532;2022-12-07T09:30:55;11.55;;;4.35;;
67130;SDS011;54051;53.464;49.532;2022-12-07T09:33:21;13.23;;;4.57;;
67130;SDS011;54051;53.464;49.532;2022-12-07T09:35:48;10.15;;;4.28;;
67130;SDS011;54051;53.464;49.532;2022-12-07T09:38:15;14.43;;;4.82;;
67130;SDS011;54051;53.464;49.532;2022-12-07T09:40:42;8.13;;;3.10;;
67130;SDS011;54051;53.464;49.532;2022-12-07T09:43:18;10.85;;;4.05;;
67130;SDS011;54051;53.464;49.532;2022-12-07T09:45:46;10.82;;;4.43;;
67130;SDS011;54051;53.464;49.532;2022-12-07T09:51:15;9.60;;;3.72;;
67130;SDS011;54051;53.464;49.532;2022-12-07T09:53:42;9.30;;;4.15;;
67130;SDS011;54051;53.464;49.532;2022-12-07T09:56:10;12.80;;;4.90;;
67130;SDS011;54051;53.464;49.532;2022-12-07T09:58:38;12.07;;;3.92;;
67130;SDS011;54051;53.464;49.532;2022-12-07T10:03:34;9.80;;;4.05;;
67130;SDS011;54051;53.464;49.532;2022-12-07T10:06:01;9.40;;;4.20;;
67130;SDS011;54051;53.464;49.532;2022-12-07T10:08:27;8.27;;;3.72;;
67130;SDS011;54051;53.464;49.532;2022-12-07T10:10:54;9.70;;;3.28;;
67130;SDS011;54051;53.464;49.532;2022-12-07T10:13:22;11.10;;;4.30;;
67130;SDS011;54051;53.464;49.532;2022-12-07T10:22:12;7.88;;;3.35;;
67130;SDS011;54051;53.464;49.532;2022-12-07T10:24:40;10.60;;;3.78;;
67130;SDS011;54051;53.464;49.532;2022-12-07T10:27:29;10.68;;;3.67;;
67130;SDS011;54051;53.464;49.532;2022-12-07T10:29:56;10.15;;;3.60;;
67130;SDS011;54051;53.464;49.532;2022-12-07T10:32:27;8.55;;;3.47;;
67130;SDS011;54051;53.464;49.532;2022-12-07T10:37:57;8.13;;;3.03;;
67130;SDS011;54051;53.464;49.532;2022-12-07T10:40:26;7.35;;;3.00;;
67130;SDS011;54051;53.464;49.532;2022-12-07T10:45:28;8.73;;;3.42;;
67130;SDS011;54051;53.464;49.532;2022-12-07T10:47:57;10.95;;;3.60;;
67130;SDS011;54051;53.464;49.532;2022-12-07T11:01:45;8.32;;;3.72;;
67130;SDS011;54051;53.464;49.532;2022-12-07T11:12:24;8.52;;;2.90;;
67130;SDS011;54051;53.464;49.532;2022-12-07T11:37:12;8.63;;;3.60;;
67130;SDS011;54051;53.464;49.532;2022-12-07T11:39:52;8.10;;;2.92;;
67130;SDS011;54051;53.464;49.532;2022-12-07T11:42:33;11.52;;;3.65;;
67130;SDS011;54051;53.464;49.532;2022-12-07T11:50:41;10.90;;;3.65;;
67130;SDS011;54051;53.464;49.532;2022-12-07T11:53:13;11.63;;;3.58;;
67130;SDS011;54051;53.464;49.532;2022-12-07T11:55:47;11.23;;;3.50;;
67130;SDS011;54051;53.464;49.532;2022-12-07T12:04:17;7.75;;;2.53;;
67130;SDS011;54051;53.464;49.532;2022-12-07T12:06:37;8.45;;;2.80;;
67130;SDS011;54051;53.464;49.532;2022-12-07T12:09:17;10.05;;;2.72;;
67130;SDS011;54051;53.464;49.532;2022-12-07T12:17:18;9.43;;;2.50;;
67130;SDS011;54051;53.464;49.532;2022-12-07T12:28:20;8.50;;;2.88;;
67130;SDS011;54051;53.464;49.532;2022-12-07T12:33:38;10.27;;;3.10;;
67130;SDS011;54051;53.464;49.532;2022-12-07T12:51:46;11.85;;;3.80;;
67130;SDS011;54051;53.464;49.532;2022-12-07T12:56:55;10.70;;;3.83;;
67130;SDS011;54051;53.464;49.532;2022-12-07T12:59:30;10.48;;;4.13;;
67130;SDS011;54051;53.464;49.532;2022-12-07T13:15:46;9.85;;;2.80;;
67130;SDS011;54051;53.464;49.532;2022-12-07T13:32:01;13.43;;;3.22;;
67130;SDS011;54051;53.464;49.532;2022-12-07T13:34:37;9.38;;;4.03;;
67130;SDS011;54051;53.464;49.532;2022-12-07T13:39:44;9.75;;;3.42;;
67130;SDS011;54051;53.464;49.532;2022-12-07T13:44:54;8.07;;;3.33;;
67130;SDS011;54051;53.464;49.532;2022-12-07T13:52:59;9.65;;;4.00;;
67130;SDS011;54051;53.464;49.532;2022-12-07T13:55:27;14.73;;;4.43;;
67130;SDS011;54051;53.464;49.532;2022-12-07T13:57:54;10.48;;;4.53;;
67130;SDS011;54051;53.464;49.532;2022-12-07T14:00:22;12.20;;;4.40;;
67130;SDS011;54051;53.464;49.532;2022-12-07T14:05:40;12.00;;;4.25;;
67130;SDS011;54051;53.464;49.532;2022-12-07T14:10:39;13.02;;;4.00;;
67130;SDS011;54051;53.464;49.532;2022-12-07T14:16:27;10.23;;;3.85;;
67130;SDS011;54051;53.464;49.532;2022-12-07T14:18:51;10.05;;;4.30;;
67130;SDS011;54051;53.464;49.532;2022-12-07T14:21:19;11.02;;;4.00;;
67130;SDS011;54051;53.464;49.532;2022-12-07T14:26:34;10.40;;;3.88;;
67130;SDS011;54051;53.464;49.532;2022-12-07T14:31:51;16.98;;;4.47;;
67130;SDS011;54051;53.464;49.532;2022-12-07T14:34:21;11.80;;;3.85;;
67130;SDS011;54051;53.464;49.532;2022-12-07T14:36:48;13.00;;;4.22;;
67130;SDS011;54051;53.464;49.532;2022-12-07T14:39:14;9.38;;;3.88;;
67130;SDS011;54051;53.464;49.532;2022-12-07T14:41:40;13.95;;;3.92;;
67130;SDS011;54051;53.464;49.532;2022-12-07T14:44:16;11.75;;;4.30;;
67130;SDS011;54051;53.464;49.532;2022-12-07T14:46:42;15.98;;;4.40;;
67130;SDS011;54051;53.464;49.532;2022-12-07T14:49:08;13.50;;;4.18;;
67130;SDS011;54051;53.464;49.532;2022-12-07T14:51:35;12.13;;;3.75;;
67130;SDS011;54051;53.464;49.532;2022-12-07T14:54:04;10.82;;;3.80;;
67130;SDS011;54051;53.464;49.532;2022-12-07T14:56:31;11.60;;;3.45;;
67130;SDS011;54051;53.464;49.532;2022-12-07T14:58:57;8.98;;;4.15;;
67130;SDS011;54051;53.464;49.532;2022-12-07T15:01:23;9.38;;;4.20;;
67130;SDS011;54051;53.464;49.532;2022-12-07T15:03:49;10.32;;;4.50;;
67130;SDS011;54051;53.464;49.532;2022-12-07T15:06:16;15.77;;;5.60;;
67130;SDS011;54051;53.464;49.532;2022-12-07T15:08:43;9.05;;;3.90;;
67130;SDS011;54051;53.464;49.532;2022-12-07T15:11:12;11.88;;;4.35;;
67130;SDS011;54051;53.464;49.532;2022-12-07T15:13:39;12.65;;;4.38;;
67130;SDS011;54051;53.464;49.532;2022-12-07T15:16:24;11.32;;;4.55;;
67130;SDS011;54051;53.464;49.532;2022-12-07T15:18:50;17.75;;;6.07;;
67130;SDS011;54051;53.464;49.532;2022-12-07T15:21:17;17.23;;;6.85;;
67130;SDS011;54051;53.464;49.532;2022-12-07T15:23:43;22.08;;;7.53;;
67130;SDS011;54051;53.464;49.532;2022-12-07T15:26:11;22.83;;;7.07;;
67130;SDS011;54051;53.464;49.532;2022-12-07T15:28:39;21.92;;;7.65;;
67130;SDS011;54051;53.464;49.532;2022-12-07T15:31:13;21.48;;;8.40;;
67130;SDS011;54051;53.464;49.532;2022-12-07T15:33:40;17.73;;;7.13;;
67130;SDS011;54051;53.464;49.532;2022-12-07T15:38:35;18.33;;;6.78;;
67130;SDS011;54051;53.464;49.532;2022-12-07T15:41:01;20.35;;;7.65;;
67130;SDS011;54051;53.464;49.532;2022-12-07T15:43:27;18.20;;;6.47;;
67130;SDS011;54051;53.464;49.532;2022-12-07T15:46:11;18.33;;;7.05;;
67130;SDS011;54051;53.464;49.532;2022-12-07T15:48:37;20.27;;;8.57;;
67130;SDS011;54051;53.464;49.532;2022-12-07T15:51:07;25.63;;;9.60;;
67130;SDS011;54051;53.464;49.532;2022-12-07T15:53:34;18.55;;;5.45;;
67130;SDS011;54051;53.464;49.532;2022-12-07T15:56:01;26.90;;;7.37;;
67130;SDS011;54051;53.464;49.532;2022-12-07T15:58:31;23.92;;;9.10;;
67130;SDS011;54051;53.464;49.532;2022-12-07T16:00:57;22.23;;;8.10;;
67130;SDS011;54051;53.464;49.532;2022-12-07T16:03:23;14.15;;;4.88;;
67130;SDS011;54051;53.464;49.532;2022-12-07T16:05:49;14.48;;;4.50;;
67130;SDS011;54051;53.464;49.532;2022-12-07T16:08:16;11.68;;;4.25;;
67130;SDS011;54051;53.464;49.532;2022-12-07T16:10:42;16.60;;;4.70;;
67130;SDS011;54051;53.464;49.532;2022-12-07T16:13:09;16.73;;;5.85;;
67130;SDS011;54051;53.464;49.532;2022-12-07T16:15:42;10.10;;;3.42;;
67130;SDS011;54051;53.464;49.532;2022-12-07T16:18:08;9.60;;;3.88;;
67130;SDS011;54051;53.464;49.532;2022-12-07T16:20:34;7.80;;;3.08;;
67130;SDS011;54051;53.464;49.532;2022-12-07T16:23:00;9.60;;;3.60;;
67130;SDS011;54051;53.464;49.532;2022-12-07T16:25:27;10.85;;;3.58;;
67130;SDS011;54051;53.464;49.532;2022-12-07T16:27:53;10.23;;;2.45;;
67130;SDS011;54051;53.464;49.532;2022-12-07T16:30:19;7.97;;;3.03;;
67130;SDS011;54051;53.464;49.532;2022-12-07T16:32:46;9.88;;;3.28;;
67130;SDS011;54051;53.464;49.532;2022-12-07T16:35:12;8.00;;;2.80;;
67130;SDS011;54051;53.464;49.532;2022-12-07T16:37:38;10.45;;;3.10;;
67130;SDS011;54051;53.464;49.532;2022-12-07T16:40:07;9.77;;;3.35;;
67130;SDS011;54051;53.464;49.532;2022-12-07T16:42:33;7.77;;;3.20;;
67130;SDS011;54051;53.464;49.532;2022-12-07T16:45:00;12.63;;;4.43;;
67130;SDS011;54051;53.464;49.532;2022-12-07T16:47:28;11.27;;;4.05;;
67130;SDS011;54051;53.464;49.532;2022-12-07T16:49:54;10.50;;;4.00;;
67130;SDS011;54051;53.464;49.532;2022-12-07T16:52:21;16.73;;;6.25;;
67130;SDS011;54051;53.464;49.532;2022-12-07T16:54:47;18.92;;;6.03;;
67130;SDS011;54051;53.464;49.532;2022-12-07T16:57:14;18.55;;;5.90;;
67130;SDS011;54051;53.464;49.532;2022-12-07T16:59:42;20.38;;;6.70;;
67130;SDS011;54051;53.464;49.532;2022-12-07T17:02:10;19.50;;;6.43;;
67130;SDS011;54051;53.464;49.532;2022-12-07T17:04:37;18.73;;;6.15;;
67130;SDS011;54051;53.464;49.532;2022-12-07T17:07:07;21.00;;;6.25;;
67130;SDS011;54051;53.464;49.532;2022-12-07T17:09:34;22.03;;;7.20;;
67130;SDS011;54051;53.464;49.532;2022-12-07T17:12:00;17.25;;;6.13;;
67130;SDS011;54051;53.464;49.532;2022-12-07T17:14:26;17.65;;;6.07;;
67130;SDS011;54051;53.464;49.532;2022-12-07T17:17:15;15.50;;;5.20;;
67130;SDS011;54051;53.464;49.532;2022-12-07T17:19:41;16.40;;;5.53;;
67130;SDS011;54051;53.464;49.532;2022-12-07T17:22:07;13.32;;;4.78;;
67130;SDS011;54051;53.464;49.532;2022-12-07T17:24:36;14.80;;;5.22;;
67130;SDS011;54051;53.464;49.532;2022-12-07T17:27:02;15.20;;;5.22;;
67130;SDS011;54051;53.464;49.532;2022-12-07T17:29:28;15.98;;;5.22;;
67130;SDS011;54051;53.464;49.532;2022-12-07T17:31:54;13.45;;;5.32;;
67130;SDS011;54051;53.464;49.532;2022-12-07T17:34:20;16.30;;;5.38;;
67130;SDS011;54051;53.464;49.532;2022-12-07T17:36:46;14.15;;;5.55;;
67130;SDS011;54051;53.464;49.532;2022-12-07T17:39:14;17.17;;;5.47;;
67130;SDS011;54051;53.464;49.532;2022-12-07T17:41:42;14.68;;;5.43;;
67130;SDS011;54051;53.464;49.532;2022-12-07T17:44:30;19.85;;;6.00;;
67130;SDS011;54051;53.464;49.532;2022-12-07T17:46:56;16.90;;;6.00;;
67130;SDS011;54051;53.464;49.532;2022-12-07T17:49:23;16.13;;;5.18;;
67130;SDS011;54051;53.464;49.532;2022-12-07T17:51:50;14.95;;;4.68;;
67130;SDS011;54051;53.464;49.532;2022-12-07T17:54:35;15.23;;;5.75;;
67130;SDS011;54051;53.464;49.532;2022-12-07T17:57:01;11.43;;;3.92;;